createdAt,value
2019-03-29T00:00:07.252Z,0.00
2019-03-29T00:01:07.294Z,0.00
2019-03-29T00:02:07.337Z,0.00
2019-03-29T00:03:07.378Z,0.00
2019-03-29T00:04:07.419Z,0.00
2019-03-29T00:05:07.461Z,0.00
2019-03-29T00:06:07.502Z,0.00
2019-03-29T00:07:07.541Z,0.00
2019-03-29T00:08:08.446Z,0.00
2019-03-29T00:09:07.620Z,0.00
2019-03-29T00:10:07.663Z,0.00
2019-03-29T00:11:07.707Z,0.00
2019-03-29T00:12:07.741Z,0.00
2019-03-29T00:13:07.783Z,0.00
2019-03-29T00:14:07.825Z,0.00
2019-03-29T00:15:08.063Z,0.00
2019-03-29T00:16:07.905Z,0.00
2019-03-29T00:17:07.945Z,0.00
2019-03-29T00:18:07.988Z,0.00
2019-03-29T00:19:08.030Z,0.00
2019-03-29T00:20:08.070Z,0.00
2019-03-29T00:21:08.118Z,0.00
2019-03-29T00:22:08.152Z,0.00
2019-03-29T00:23:08.189Z,0.00
2019-03-29T00:24:08.230Z,0.00
2019-03-29T00:25:08.278Z,0.00
2019-03-29T00:26:08.313Z,0.00
2019-03-29T00:27:08.350Z,0.00
2019-03-29T00:28:08.392Z,0.00
2019-03-29T00:29:08.434Z,0.00
2019-03-29T00:30:08.474Z,0.00
2019-03-29T00:31:08.522Z,0.00
2019-03-29T00:32:08.555Z,0.00
2019-03-29T00:33:08.596Z,0.00
2019-03-29T00:34:08.646Z,0.00
2019-03-29T00:35:08.677Z,0.00
2019-03-29T00:36:08.727Z,0.00
2019-03-29T00:37:08.761Z,0.00
2019-03-29T00:38:08.803Z,0.00
2019-03-29T00:39:08.848Z,0.00
2019-03-29T00:40:08.881Z,0.00
2019-03-29T00:41:08.923Z,0.00
2019-03-29T00:42:08.961Z,0.00
2019-03-29T00:43:09.131Z,0.00
2019-03-29T00:44:09.042Z,0.00
2019-03-29T00:45:09.091Z,0.00
2019-03-29T00:46:09.140Z,0.00
2019-03-29T00:47:09.165Z,0.00
2019-03-29T00:48:09.222Z,0.00
2019-03-29T00:49:09.244Z,0.00
2019-03-29T00:50:09.287Z,0.00
2019-03-29T00:51:09.333Z,0.00
2019-03-29T00:52:09.374Z,0.00
2019-03-29T00:53:09.437Z,0.00
2019-03-29T00:54:09.456Z,0.00
2019-03-29T00:55:09.492Z,0.00
2019-03-29T00:56:09.531Z,0.00
2019-03-29T00:57:09.581Z,0.00
2019-03-29T00:58:09.613Z,0.00
2019-03-29T00:59:09.652Z,0.00
2019-03-29T01:00:09.694Z,0.00
2019-03-29T01:01:09.745Z,0.00
2019-03-29T01:02:09.791Z,0.00
2019-03-29T01:03:10.905Z,0.00
2019-03-29T01:04:09.856Z,0.00
2019-03-29T01:05:09.904Z,0.00
2019-03-29T01:06:09.939Z,0.00
2019-03-29T01:07:09.977Z,0.00
2019-03-29T01:08:10.608Z,0.00
2019-03-29T01:09:10.064Z,0.00
2019-03-29T01:10:10.102Z,0.00
2019-03-29T01:11:10.152Z,0.00
2019-03-29T01:12:10.178Z,0.00
2019-03-29T01:13:10.220Z,0.00
2019-03-29T01:14:10.260Z,0.00
2019-03-29T01:15:10.302Z,0.00
2019-03-29T01:16:10.341Z,0.00
2019-03-29T01:17:10.383Z,0.00
2019-03-29T01:18:11.808Z,0.00
2019-03-29T01:19:10.470Z,0.00
2019-03-29T01:20:10.509Z,0.00
2019-03-29T01:21:10.549Z,0.00
2019-03-29T01:22:10.594Z,0.00
2019-03-29T01:23:10.633Z,0.00
2019-03-29T01:24:10.664Z,0.00
2019-03-29T01:25:10.709Z,0.00
2019-03-29T01:26:10.745Z,0.00
2019-03-29T01:27:10.799Z,0.00
2019-03-29T01:28:11.966Z,0.00
2019-03-29T01:29:10.869Z,0.00
2019-03-29T01:30:10.908Z,0.00
2019-03-29T01:31:10.947Z,0.00
2019-03-29T01:32:10.988Z,0.00
2019-03-29T01:33:11.030Z,0.00
2019-03-29T01:34:11.070Z,0.00
2019-03-29T01:35:11.110Z,0.00
2019-03-29T01:36:11.166Z,0.00
2019-03-29T01:37:11.190Z,0.00
2019-03-29T01:38:21.834Z,0.00
2019-03-29T01:39:11.274Z,0.00
2019-03-29T01:40:11.314Z,0.00
2019-03-29T01:41:11.370Z,0.00
2019-03-29T01:42:11.399Z,0.00
2019-03-29T01:43:11.436Z,0.00
2019-03-29T01:44:11.473Z,0.00
2019-03-29T01:45:11.518Z,0.00
2019-03-29T01:46:12.032Z,0.00
2019-03-29T01:47:11.696Z,0.00
2019-03-29T01:48:11.638Z,0.00
2019-03-29T01:49:11.676Z,0.00
2019-03-29T01:50:11.717Z,0.00
2019-03-29T01:51:11.757Z,0.00
2019-03-29T01:52:11.799Z,0.00
2019-03-29T01:53:12.048Z,0.00
2019-03-29T01:54:11.884Z,0.00
2019-03-29T01:55:11.921Z,0.00
2019-03-29T01:56:11.961Z,0.00
2019-03-29T01:57:12.003Z,0.00
2019-03-29T01:58:12.042Z,0.00
2019-03-29T01:59:12.081Z,0.00
2019-03-29T02:00:12.123Z,0.00
2019-03-29T02:01:12.168Z,0.00
2019-03-29T02:02:12.207Z,0.00
2019-03-29T02:03:13.019Z,0.00
2019-03-29T02:04:12.290Z,0.00
2019-03-29T02:05:12.334Z,0.00
2019-03-29T02:06:12.368Z,0.00
2019-03-29T02:07:12.408Z,0.00
2019-03-29T02:08:12.448Z,0.00
2019-03-29T02:09:12.489Z,0.00
2019-03-29T02:10:12.530Z,0.00
2019-03-29T02:11:12.571Z,0.00
2019-03-29T02:12:12.608Z,0.00
2019-03-29T02:13:12.651Z,0.00
2019-03-29T02:14:12.691Z,0.00
2019-03-29T02:15:12.730Z,0.00
2019-03-29T02:16:12.771Z,0.00
2019-03-29T02:17:12.813Z,0.00
2019-03-29T02:18:13.315Z,0.00
2019-03-29T02:19:12.891Z,0.00
2019-03-29T02:20:12.932Z,0.00
2019-03-29T02:21:12.973Z,0.00
2019-03-29T02:22:13.014Z,0.00
2019-03-29T02:23:13.054Z,0.00
2019-03-29T02:24:13.094Z,0.00
2019-03-29T02:25:13.151Z,0.00
2019-03-29T02:26:13.175Z,0.00
2019-03-29T02:27:13.218Z,0.00
2019-03-29T02:28:13.256Z,0.00
2019-03-29T02:29:13.297Z,0.00
2019-03-29T02:30:13.341Z,0.00
2019-03-29T02:31:13.389Z,0.00
2019-03-29T02:32:13.424Z,0.00
2019-03-29T02:33:13.462Z,0.00
2019-03-29T02:34:15.670Z,0.00
2019-03-29T02:35:13.540Z,0.00
2019-03-29T02:36:13.582Z,0.00
2019-03-29T02:37:13.622Z,0.00
2019-03-29T02:38:13.665Z,0.00
2019-03-29T02:39:13.717Z,0.00
2019-03-29T02:40:13.783Z,0.00
2019-03-29T02:41:13.782Z,0.00
2019-03-29T02:42:14.799Z,0.00
2019-03-29T02:43:13.867Z,0.00
2019-03-29T02:44:13.905Z,0.00
2019-03-29T02:45:13.944Z,0.00
2019-03-29T02:46:13.986Z,0.00
2019-03-29T02:47:14.026Z,0.00
2019-03-29T02:48:14.066Z,0.00
2019-03-29T02:49:14.107Z,0.00
2019-03-29T02:50:14.166Z,0.00
2019-03-29T02:51:14.187Z,0.00
2019-03-29T02:52:14.235Z,0.00
2019-03-29T02:53:14.273Z,0.00
2019-03-29T02:54:14.473Z,0.00
2019-03-29T02:55:14.350Z,0.00
2019-03-29T02:56:14.390Z,0.00
2019-03-29T02:57:14.441Z,0.00
2019-03-29T02:58:14.472Z,0.00
2019-03-29T02:59:14.525Z,0.00
2019-03-29T03:00:14.554Z,0.00
2019-03-29T03:01:14.593Z,0.00
2019-03-29T03:02:14.647Z,0.00
2019-03-29T03:03:14.674Z,0.00
2019-03-29T03:04:14.720Z,0.00
2019-03-29T03:05:14.756Z,0.00
2019-03-29T03:06:14.796Z,0.00
2019-03-29T03:07:14.868Z,0.00
2019-03-29T03:08:14.879Z,0.00
2019-03-29T03:09:15.061Z,0.00
2019-03-29T03:10:14.958Z,0.00
2019-03-29T03:11:14.997Z,0.00
2019-03-29T03:12:15.037Z,0.00
2019-03-29T03:13:15.078Z,0.00
2019-03-29T03:14:15.120Z,0.00
2019-03-29T03:15:15.164Z,0.00
2019-03-29T03:16:15.199Z,0.00
2019-03-29T03:17:15.243Z,0.00
2019-03-29T03:18:15.281Z,0.00
2019-03-29T03:19:15.321Z,0.00
2019-03-29T03:20:15.943Z,0.00
2019-03-29T03:21:15.404Z,0.00
2019-03-29T03:22:15.442Z,0.00
2019-03-29T03:23:15.482Z,0.00
2019-03-29T03:24:15.526Z,0.00
2019-03-29T03:25:15.719Z,0.00
2019-03-29T03:26:15.604Z,0.00
2019-03-29T03:27:15.646Z,0.00
2019-03-29T03:28:15.686Z,0.00
2019-03-29T03:29:15.725Z,0.00
2019-03-29T03:30:15.767Z,0.00
2019-03-29T03:31:15.805Z,0.00
2019-03-29T03:32:15.855Z,0.00
2019-03-29T03:33:15.905Z,0.00
2019-03-29T03:34:15.930Z,0.00
2019-03-29T03:35:15.976Z,0.00
2019-03-29T03:36:16.009Z,0.00
2019-03-29T03:37:16.051Z,0.00
2019-03-29T03:38:16.090Z,0.00
2019-03-29T03:39:30.807Z,0.00
2019-03-29T03:40:16.169Z,0.00
2019-03-29T03:41:16.209Z,0.00
2019-03-29T03:42:16.258Z,0.00
2019-03-29T03:43:16.290Z,0.00
2019-03-29T03:44:16.352Z,0.00
2019-03-29T03:45:16.370Z,0.00
2019-03-29T03:46:16.414Z,0.00
2019-03-29T03:47:16.454Z,0.00
2019-03-29T03:48:16.491Z,0.00
2019-03-29T03:49:16.535Z,0.00
2019-03-29T03:50:16.572Z,0.00
2019-03-29T03:51:16.620Z,0.00
2019-03-29T03:52:16.656Z,0.00
2019-03-29T03:53:16.715Z,0.00
2019-03-29T03:54:16.734Z,0.00
2019-03-29T03:55:16.776Z,0.00
2019-03-29T03:56:16.815Z,0.00
2019-03-29T03:57:16.979Z,0.00
2019-03-29T03:58:16.907Z,0.00
2019-03-29T03:59:16.936Z,0.00
2019-03-29T04:00:16.979Z,0.00
2019-03-29T04:01:17.082Z,0.00
2019-03-29T04:02:17.065Z,0.00
2019-03-29T04:03:17.116Z,0.00
2019-03-29T04:04:17.136Z,0.00
2019-03-29T04:05:17.189Z,0.00
2019-03-29T04:06:17.222Z,0.00
2019-03-29T04:07:17.259Z,0.00
2019-03-29T04:08:17.401Z,0.00
2019-03-29T04:09:17.336Z,0.00
2019-03-29T04:10:17.375Z,0.00
2019-03-29T04:11:17.530Z,0.00
2019-03-29T04:12:17.455Z,0.00
2019-03-29T04:13:17.504Z,0.00
2019-03-29T04:14:17.537Z,0.00
2019-03-29T04:15:17.575Z,0.00
2019-03-29T04:16:17.625Z,0.00
2019-03-29T04:17:17.668Z,0.00
2019-03-29T04:18:17.712Z,0.00
2019-03-29T04:19:17.737Z,0.00
2019-03-29T04:20:17.779Z,0.00
2019-03-29T04:21:17.817Z,0.00
2019-03-29T04:22:17.858Z,0.00
2019-03-29T04:23:17.897Z,0.00
2019-03-29T04:24:17.941Z,0.00
2019-03-29T04:25:17.979Z,0.00
2019-03-29T04:26:18.025Z,0.00
2019-03-29T04:27:18.059Z,0.00
2019-03-29T04:28:18.097Z,0.00
2019-03-29T04:29:18.138Z,0.00
2019-03-29T04:30:18.178Z,0.00
2019-03-29T04:31:18.235Z,0.00
2019-03-29T04:32:18.261Z,0.00
2019-03-29T04:33:18.302Z,0.00
2019-03-29T04:34:18.342Z,0.00
2019-03-29T04:35:18.380Z,4.00
2019-03-29T04:36:18.436Z,4.00
2019-03-29T04:37:18.459Z,4.00
2019-03-29T04:38:18.499Z,4.00
2019-03-29T04:39:18.539Z,4.00
2019-03-29T04:40:18.582Z,4.00
2019-03-29T04:41:18.622Z,4.00
2019-03-29T04:42:18.660Z,8.00
2019-03-29T04:43:18.711Z,8.00
2019-03-29T04:44:18.744Z,8.00
2019-03-29T04:45:18.780Z,16.00
2019-03-29T04:46:18.822Z,20.00
2019-03-29T04:47:18.861Z,20.00
2019-03-29T04:48:18.900Z,20.00
2019-03-29T04:49:18.939Z,28.00
2019-03-29T04:50:18.980Z,32.00
2019-03-29T04:51:19.020Z,36.00
2019-03-29T04:52:19.062Z,44.00
2019-03-29T04:53:19.100Z,52.00
2019-03-29T04:54:19.152Z,56.00
2019-03-29T04:55:19.185Z,64.00
2019-03-29T04:56:19.220Z,72.00
2019-03-29T04:57:19.261Z,84.00
2019-03-29T04:58:19.300Z,92.00
2019-03-29T04:59:19.341Z,100.00
2019-03-29T05:00:19.383Z,116.00
2019-03-29T05:01:19.426Z,124.00
2019-03-29T05:02:19.464Z,136.00
2019-03-29T05:03:19.508Z,148.00
2019-03-29T05:04:19.544Z,164.00
2019-03-29T05:05:19.582Z,176.00
2019-03-29T05:06:19.621Z,192.00
2019-03-29T05:07:19.668Z,212.00
2019-03-29T05:08:19.700Z,228.00
2019-03-29T05:09:19.756Z,248.00
2019-03-29T05:10:21.419Z,264.00
2019-03-29T05:11:19.824Z,284.00
2019-03-29T05:12:19.860Z,312.00
2019-03-29T05:13:19.900Z,340.00
2019-03-29T05:14:19.941Z,376.00
2019-03-29T05:15:20.070Z,404.00
2019-03-29T05:16:20.028Z,436.00
2019-03-29T05:17:20.061Z,472.00
2019-03-29T05:18:20.101Z,504.00
2019-03-29T05:19:20.140Z,536.00
2019-03-29T05:20:20.182Z,572.00
2019-03-29T05:21:20.220Z,604.00
2019-03-29T05:22:20.262Z,648.00
2019-03-29T05:23:20.305Z,696.00
2019-03-29T05:24:20.353Z,744.00
2019-03-29T05:25:20.432Z,792.00
2019-03-29T05:26:20.428Z,836.00
2019-03-29T05:27:20.461Z,876.00
2019-03-29T05:28:20.501Z,916.00
2019-03-29T05:29:20.543Z,956.00
2019-03-29T05:30:20.582Z,992.00
2019-03-29T05:31:20.625Z,1044.00
2019-03-29T05:32:20.664Z,1088.00
2019-03-29T05:33:20.706Z,1132.00
2019-03-29T05:34:20.744Z,1176.00
2019-03-29T05:35:20.784Z,1212.00
2019-03-29T05:36:20.822Z,1248.00
2019-03-29T05:37:20.867Z,1304.00
2019-03-29T05:38:20.907Z,1368.00
2019-03-29T05:39:20.942Z,1452.00
2019-03-29T05:40:34.034Z,1520.00
2019-03-29T05:41:21.023Z,1576.00
2019-03-29T05:42:21.062Z,1620.00
2019-03-29T05:43:21.110Z,1644.00
2019-03-29T05:44:21.144Z,1680.00
2019-03-29T05:45:21.183Z,1712.00
2019-03-29T05:46:21.224Z,1744.00
2019-03-29T05:47:21.272Z,1796.00
2019-03-29T05:48:21.311Z,1852.00
2019-03-29T05:49:21.356Z,1916.00
2019-03-29T05:50:21.390Z,1968.00
2019-03-29T05:51:21.436Z,2060.00
2019-03-29T05:52:21.467Z,2156.00
2019-03-29T05:53:21.523Z,2276.00
2019-03-29T05:54:21.546Z,2408.00
2019-03-29T05:55:32.056Z,2536.00
2019-03-29T05:56:21.633Z,2676.00
2019-03-29T05:57:21.668Z,2768.00
2019-03-29T05:58:21.706Z,2872.00
2019-03-29T05:59:21.765Z,2980.00
2019-03-29T06:00:21.789Z,3092.00
2019-03-29T06:01:21.880Z,3236.00
2019-03-29T06:02:21.868Z,3360.00
2019-03-29T06:03:21.912Z,3468.00
2019-03-29T06:04:21.951Z,3536.00
2019-03-29T06:05:21.988Z,3584.00
2019-03-29T06:06:22.031Z,3656.00
2019-03-29T06:07:22.070Z,3760.00
2019-03-29T06:08:22.110Z,3920.00
2019-03-29T06:09:22.149Z,4064.00
2019-03-29T06:10:22.191Z,4276.00
2019-03-29T06:11:22.237Z,4492.00
2019-03-29T06:12:22.271Z,4744.00
2019-03-29T06:13:22.314Z,5040.00
2019-03-29T06:14:22.352Z,5268.00
2019-03-29T06:15:22.393Z,5440.00
2019-03-29T06:16:22.432Z,5576.00
2019-03-29T06:17:22.474Z,5760.00
2019-03-29T06:18:22.515Z,5996.00
2019-03-29T06:19:22.556Z,6080.00
2019-03-29T06:20:22.596Z,5968.00
2019-03-29T06:21:22.637Z,5604.00
2019-03-29T06:22:22.679Z,5080.00
2019-03-29T06:23:22.718Z,4652.00
2019-03-29T06:24:22.760Z,4288.00
2019-03-29T06:25:22.801Z,4056.00
2019-03-29T06:26:22.840Z,3876.00
2019-03-29T06:27:22.881Z,3816.00
2019-03-29T06:28:22.923Z,3820.00
2019-03-29T06:29:22.964Z,3740.00
2019-03-29T06:30:23.005Z,3752.00
2019-03-29T06:31:23.046Z,3828.00
2019-03-29T06:32:23.087Z,3804.00
2019-03-29T06:33:23.127Z,3768.00
2019-03-29T06:34:23.185Z,3712.00
2019-03-29T06:35:23.209Z,3644.00
2019-03-29T06:36:23.258Z,3636.00
2019-03-29T06:37:23.303Z,3708.00
2019-03-29T06:38:23.331Z,3796.00
2019-03-29T06:39:23.371Z,3948.00
2019-03-29T06:40:23.424Z,4156.00
2019-03-29T06:41:23.456Z,4424.00
2019-03-29T06:42:23.497Z,4748.00
2019-03-29T06:43:23.533Z,5144.00
2019-03-29T06:44:23.574Z,5540.00
2019-03-29T06:45:23.619Z,5684.00
2019-03-29T06:46:23.663Z,5668.00
2019-03-29T06:47:23.696Z,5748.00
2019-03-29T06:48:23.747Z,6028.00
2019-03-29T06:49:23.779Z,6360.00
2019-03-29T06:50:23.818Z,6660.00
2019-03-29T06:51:23.859Z,6836.00
2019-03-29T06:52:23.905Z,6768.00
2019-03-29T06:53:23.957Z,6516.00
2019-03-29T06:54:23.981Z,6404.00
2019-03-29T06:55:24.022Z,6684.00
2019-03-29T06:56:24.064Z,7108.00
2019-03-29T06:57:24.103Z,7312.00
2019-03-29T06:58:24.144Z,7252.00
2019-03-29T06:59:24.187Z,7124.00
2019-03-29T07:00:24.232Z,6972.00
2019-03-29T07:01:24.276Z,6900.00
2019-03-29T07:02:24.308Z,6960.00
2019-03-29T07:03:24.350Z,6932.00
2019-03-29T07:04:24.389Z,6756.00
2019-03-29T07:05:24.434Z,6500.00
2019-03-29T07:06:24.471Z,6240.00
2019-03-29T07:07:24.509Z,5932.00
2019-03-29T07:08:24.556Z,5712.00
2019-03-29T07:09:24.643Z,5404.00
2019-03-29T07:10:24.634Z,5196.00
2019-03-29T07:11:24.673Z,5280.00
2019-03-29T07:12:24.714Z,5404.00
2019-03-29T07:13:24.760Z,5352.00
2019-03-29T07:14:24.811Z,5336.00
2019-03-29T07:15:24.836Z,5408.00
2019-03-29T07:16:24.893Z,5408.00
2019-03-29T07:17:24.919Z,5396.00
2019-03-29T07:18:24.960Z,5336.00
2019-03-29T07:19:25.000Z,5504.00
2019-03-29T07:20:25.042Z,5752.00
2019-03-29T07:21:25.082Z,6016.00
2019-03-29T07:22:25.124Z,6184.00
2019-03-29T07:23:25.179Z,6260.00
2019-03-29T07:24:25.206Z,6216.00
2019-03-29T07:25:25.247Z,6448.00
2019-03-29T07:26:25.289Z,6768.00
2019-03-29T07:27:25.326Z,7088.00
2019-03-29T07:28:25.370Z,7204.00
2019-03-29T07:29:25.410Z,7232.00
2019-03-29T07:30:25.457Z,6940.00
2019-03-29T07:31:25.493Z,6484.00
2019-03-29T07:32:25.537Z,6028.00
2019-03-29T07:33:25.591Z,5664.00
2019-03-29T07:34:25.614Z,5376.00
2019-03-29T07:35:25.712Z,5136.00
2019-03-29T07:36:25.705Z,4988.00
2019-03-29T07:37:25.739Z,4848.00
2019-03-29T07:38:25.780Z,4728.00
2019-03-29T07:39:25.823Z,4652.00
2019-03-29T07:40:25.862Z,4628.00
2019-03-29T07:41:32.223Z,4620.00
2019-03-29T07:42:25.952Z,4616.00
2019-03-29T07:43:25.996Z,4604.00
2019-03-29T07:44:26.030Z,4596.00
2019-03-29T07:45:26.067Z,4592.00
2019-03-29T07:46:26.109Z,4584.00
2019-03-29T07:47:26.149Z,4576.00
2019-03-29T07:48:26.193Z,4576.00
2019-03-29T07:49:26.235Z,4600.00
2019-03-29T07:50:26.274Z,4616.00
2019-03-29T07:51:26.322Z,4640.00
2019-03-29T07:52:26.355Z,4660.00
2019-03-29T07:53:26.397Z,4644.00
2019-03-29T07:54:26.453Z,4632.00
2019-03-29T07:55:26.479Z,4636.00
2019-03-29T07:56:26.524Z,4648.00
2019-03-29T07:57:26.564Z,4664.00
2019-03-29T07:58:26.605Z,4692.00
2019-03-29T07:59:26.645Z,4688.00
2019-03-29T08:00:26.700Z,4672.00
2019-03-29T08:01:26.725Z,4660.00
2019-03-29T08:02:26.771Z,4656.00
2019-03-29T08:03:26.816Z,4660.00
2019-03-29T08:04:26.854Z,4720.00
2019-03-29T08:05:26.898Z,4768.00
2019-03-29T08:06:26.933Z,4792.00
2019-03-29T08:07:28.087Z,4876.00
2019-03-29T08:08:32.260Z,4904.00
2019-03-29T08:09:27.372Z,4876.00
2019-03-29T08:10:30.980Z,4888.00
2019-03-29T08:11:28.364Z,5032.00
2019-03-29T08:12:27.200Z,5020.00
2019-03-29T08:13:27.220Z,4980.00
2019-03-29T08:14:27.261Z,5212.00
2019-03-29T08:15:27.320Z,5644.00
2019-03-29T08:16:27.345Z,6048.00
2019-03-29T08:17:27.388Z,6500.00
2019-03-29T08:18:27.431Z,6556.00
2019-03-29T08:19:27.479Z,6220.00
2019-03-29T08:20:44.403Z,5976.00
2019-03-29T08:21:27.558Z,5808.00
2019-03-29T08:22:27.592Z,5600.00
2019-03-29T08:23:28.904Z,5456.00
2019-03-29T08:24:27.675Z,5428.00
2019-03-29T08:25:27.715Z,5500.00
2019-03-29T08:26:27.774Z,5636.00
2019-03-29T08:27:27.864Z,5964.00
2019-03-29T08:28:27.848Z,6368.00
2019-03-29T08:29:31.129Z,6936.00
2019-03-29T08:30:27.925Z,7652.00
2019-03-29T08:31:27.966Z,8284.00
2019-03-29T08:32:28.013Z,8540.00
2019-03-29T08:33:28.048Z,8616.00
2019-03-29T08:34:28.101Z,8660.00
2019-03-29T08:35:28.135Z,8612.00
2019-03-29T08:36:28.173Z,8644.00
2019-03-29T08:37:28.224Z,8804.00
2019-03-29T08:38:28.257Z,8924.00
2019-03-29T08:39:28.636Z,8996.00
2019-03-29T08:40:28.341Z,9140.00
2019-03-29T08:41:28.391Z,9548.00
2019-03-29T08:42:28.434Z,9856.00
2019-03-29T08:43:28.468Z,10108.00
2019-03-29T08:44:28.524Z,10404.00
2019-03-29T08:45:28.558Z,10664.00
2019-03-29T08:46:28.593Z,10856.00
2019-03-29T08:47:28.641Z,11032.00
2019-03-29T08:48:28.679Z,11356.00
2019-03-29T08:49:28.721Z,11520.00
2019-03-29T08:50:28.763Z,11392.00
2019-03-29T08:51:28.805Z,11144.00
2019-03-29T08:52:28.854Z,11032.00
2019-03-29T08:53:28.893Z,11028.00
2019-03-29T08:54:28.942Z,10880.00
2019-03-29T08:55:28.979Z,10664.00
2019-03-29T08:56:29.096Z,10604.00
2019-03-29T08:57:29.072Z,10744.00
2019-03-29T08:58:29.112Z,10924.00
2019-03-29T08:59:29.155Z,10892.00
2019-03-29T09:00:29.197Z,10816.00
2019-03-29T09:01:29.235Z,10968.00
2019-03-29T09:02:29.280Z,11284.00
2019-03-29T09:03:29.320Z,11668.00
2019-03-29T09:04:29.362Z,11792.00
2019-03-29T09:05:29.410Z,11540.00
2019-03-29T09:06:30.411Z,11040.00
2019-03-29T09:07:43.547Z,10472.00
2019-03-29T09:08:29.542Z,10156.00
2019-03-29T09:09:29.588Z,10024.00
2019-03-29T09:10:29.624Z,10084.00
2019-03-29T09:11:29.672Z,10224.00
2019-03-29T09:12:29.711Z,10312.00
2019-03-29T09:13:29.754Z,10400.00
2019-03-29T09:14:31.360Z,10548.00
2019-03-29T09:15:29.857Z,10804.00
2019-03-29T09:16:29.883Z,11060.00
2019-03-29T09:17:29.930Z,11280.00
2019-03-29T09:18:29.982Z,11588.00
2019-03-29T09:19:30.018Z,12004.00
2019-03-29T09:20:30.059Z,12600.00
2019-03-29T09:21:30.103Z,12984.00
2019-03-29T09:22:30.149Z,13280.00
2019-03-29T09:23:30.460Z,13540.00
2019-03-29T09:24:30.236Z,13552.00
2019-03-29T09:25:30.282Z,13436.00
2019-03-29T09:26:30.326Z,13284.00
2019-03-29T09:27:31.970Z,13256.00
2019-03-29T09:28:32.848Z,13232.00
2019-03-29T09:29:30.455Z,13224.00
2019-03-29T09:30:30.502Z,13444.00
2019-03-29T09:31:30.543Z,13760.00
2019-03-29T09:32:30.651Z,14128.00
2019-03-29T09:33:30.643Z,14328.00
2019-03-29T09:34:30.739Z,14348.00
2019-03-29T09:35:30.720Z,14632.00
2019-03-29T09:36:30.767Z,14896.00
2019-03-29T09:37:30.810Z,14600.00
2019-03-29T09:38:30.852Z,14180.00
2019-03-29T09:39:30.898Z,13840.00
2019-03-29T09:40:30.945Z,13840.00
2019-03-29T09:41:30.992Z,14028.00
2019-03-29T09:42:31.049Z,14048.00
2019-03-29T09:43:31.076Z,13708.00
2019-03-29T09:44:31.130Z,13304.00
2019-03-29T09:45:31.165Z,13056.00
2019-03-29T09:46:31.210Z,12892.00
2019-03-29T09:47:38.274Z,12928.00
2019-03-29T09:48:34.456Z,12956.00
2019-03-29T09:49:31.345Z,12872.00
2019-03-29T09:50:31.396Z,12800.00
2019-03-29T09:51:31.437Z,12912.00
2019-03-29T09:52:31.483Z,13012.00
2019-03-29T09:53:31.543Z,13316.00
2019-03-29T09:54:31.569Z,13584.00
2019-03-29T09:55:31.621Z,13808.00
2019-03-29T09:56:38.609Z,13940.00
2019-03-29T09:57:37.142Z,13940.00
2019-03-29T09:58:31.750Z,13696.00
2019-03-29T09:59:31.794Z,13436.00
2019-03-29T10:00:31.839Z,13192.00
2019-03-29T10:01:32.058Z,13080.00
2019-03-29T10:02:31.928Z,13372.00
2019-03-29T10:03:31.973Z,13656.00
2019-03-29T10:04:32.016Z,13700.00
2019-03-29T10:05:32.066Z,13508.00
2019-03-29T10:06:32.109Z,13292.00
2019-03-29T10:07:32.154Z,13172.00
2019-03-29T10:08:32.201Z,13072.00
2019-03-29T10:09:32.243Z,12908.00
2019-03-29T10:10:34.511Z,12736.00
2019-03-29T10:11:32.331Z,12652.00
2019-03-29T10:12:43.221Z,12688.00
2019-03-29T10:13:32.423Z,12708.00
2019-03-29T10:14:33.663Z,12832.00
2019-03-29T10:15:32.522Z,13196.00
2019-03-29T10:16:32.557Z,13480.00
2019-03-29T10:17:32.606Z,13780.00
2019-03-29T10:18:32.647Z,14068.00
2019-03-29T10:19:32.691Z,14388.00
2019-03-29T10:20:32.740Z,14520.00
2019-03-29T10:21:34.262Z,14412.00
2019-03-29T10:22:32.831Z,14232.00
2019-03-29T10:23:32.873Z,14076.00
2019-03-29T10:24:32.916Z,14080.00
2019-03-29T10:25:32.962Z,13988.00
2019-03-29T10:26:33.007Z,13676.00
2019-03-29T10:27:33.059Z,13416.00
2019-03-29T10:28:33.095Z,12656.00
2019-03-29T10:29:33.142Z,12060.00
2019-03-29T10:30:33.195Z,11508.00
2019-03-29T10:31:33.232Z,10936.00
2019-03-29T10:32:33.276Z,10556.00
2019-03-29T10:33:33.323Z,10036.00
2019-03-29T10:34:33.369Z,9784.00
2019-03-29T10:35:33.463Z,9756.00
2019-03-29T10:36:33.456Z,9892.00
2019-03-29T10:37:33.503Z,10024.00
2019-03-29T10:38:33.551Z,10444.00
2019-03-29T10:39:35.593Z,10936.00
2019-03-29T10:40:33.648Z,10876.00
2019-03-29T10:41:34.500Z,10636.00
2019-03-29T10:42:33.736Z,10264.00
2019-03-29T10:43:33.778Z,10212.00
2019-03-29T10:44:33.821Z,10808.00
2019-03-29T10:45:39.499Z,11128.00
2019-03-29T10:46:33.992Z,11156.00
2019-03-29T10:47:42.976Z,11408.00
2019-03-29T10:48:33.997Z,11588.00
2019-03-29T10:49:34.043Z,11408.00
2019-03-29T10:50:34.089Z,11436.00
2019-03-29T10:51:34.134Z,11472.00
2019-03-29T10:52:34.179Z,11252.00
2019-03-29T10:53:34.223Z,10920.00
2019-03-29T10:54:34.268Z,10860.00
2019-03-29T10:55:34.313Z,10996.00
2019-03-29T10:56:34.790Z,10708.00
2019-03-29T10:57:34.403Z,10260.00
2019-03-29T10:58:34.449Z,9832.00
2019-03-29T10:59:34.501Z,9368.00
2019-03-29T11:00:34.541Z,8944.00
2019-03-29T11:01:34.600Z,8924.00
2019-03-29T11:02:34.631Z,8612.00
2019-03-29T11:03:34.674Z,8068.00
2019-03-29T11:04:34.728Z,7416.00
2019-03-29T11:05:34.769Z,7424.00
2019-03-29T11:06:34.811Z,7720.00
2019-03-29T11:07:34.856Z,7664.00
2019-03-29T11:08:34.900Z,7744.00
2019-03-29T11:09:37.029Z,8184.00
2019-03-29T11:10:34.994Z,8340.00
2019-03-29T11:11:35.036Z,8452.00
2019-03-29T11:12:35.082Z,8124.00
2019-03-29T11:13:35.129Z,8160.00
2019-03-29T11:14:35.183Z,8432.00
2019-03-29T11:15:35.227Z,8508.00
2019-03-29T11:16:35.270Z,9068.00
2019-03-29T11:17:35.308Z,9276.00
2019-03-29T11:18:35.355Z,9192.00
2019-03-29T11:19:35.396Z,8828.00
2019-03-29T11:20:35.443Z,8772.00
2019-03-29T11:21:35.498Z,8948.00
2019-03-29T11:22:35.535Z,8924.00
2019-03-29T11:23:35.579Z,8272.00
2019-03-29T11:24:35.620Z,7460.00
2019-03-29T11:25:35.667Z,7024.00
2019-03-29T11:26:35.714Z,6848.00
2019-03-29T11:27:35.759Z,6692.00
2019-03-29T11:28:35.804Z,6596.00
2019-03-29T11:29:35.853Z,6196.00
2019-03-29T11:30:42.030Z,6128.00
2019-03-29T11:31:35.935Z,6380.00
2019-03-29T11:32:35.980Z,6552.00
2019-03-29T11:33:36.042Z,6652.00
2019-03-29T11:34:36.070Z,7032.00
2019-03-29T11:35:36.112Z,7560.00
2019-03-29T11:36:36.159Z,7864.00
2019-03-29T11:37:36.214Z,7988.00
2019-03-29T11:38:36.253Z,8160.00
2019-03-29T11:39:36.290Z,8268.00
2019-03-29T11:40:36.338Z,8064.00
2019-03-29T11:41:36.383Z,7728.00
2019-03-29T11:42:36.426Z,7464.00
2019-03-29T11:43:36.472Z,7228.00
2019-03-29T11:44:36.516Z,7332.00
2019-03-29T11:45:36.560Z,7592.00
2019-03-29T11:46:36.603Z,7812.00
2019-03-29T11:47:36.647Z,7880.00
2019-03-29T11:48:36.694Z,7812.00
2019-03-29T11:49:36.739Z,7728.00
2019-03-29T11:50:36.782Z,7444.00
2019-03-29T11:51:36.826Z,7016.00
2019-03-29T11:52:36.872Z,6884.00
2019-03-29T11:53:36.916Z,6608.00
2019-03-29T11:54:36.967Z,6276.00
2019-03-29T11:55:37.010Z,6200.00
2019-03-29T11:56:37.055Z,6312.00
2019-03-29T11:57:37.091Z,6372.00
2019-03-29T11:58:37.137Z,6320.00
2019-03-29T11:59:39.975Z,5848.00
2019-03-29T12:00:37.234Z,5304.00
2019-03-29T12:01:37.282Z,5044.00
2019-03-29T12:02:37.314Z,4996.00
2019-03-29T12:03:37.360Z,4972.00
2019-03-29T12:04:37.417Z,4996.00
2019-03-29T12:05:37.459Z,5048.00
2019-03-29T12:06:37.499Z,5088.00
2019-03-29T12:07:37.537Z,5072.00
2019-03-29T12:08:37.588Z,4988.00
2019-03-29T12:09:37.623Z,4896.00
2019-03-29T12:10:37.674Z,4912.00
2019-03-29T12:11:37.721Z,4960.00
2019-03-29T12:12:37.756Z,5028.00
2019-03-29T12:13:41.376Z,5204.00
2019-03-29T12:14:37.853Z,5308.00
2019-03-29T12:15:37.889Z,5264.00
2019-03-29T12:16:37.932Z,5004.00
2019-03-29T12:17:37.980Z,4848.00
2019-03-29T12:18:38.020Z,4796.00
2019-03-29T12:19:38.065Z,4808.00
2019-03-29T12:20:38.110Z,5032.00
2019-03-29T12:21:38.152Z,5552.00
2019-03-29T12:22:38.199Z,5884.00
2019-03-29T12:23:38.247Z,6012.00
2019-03-29T12:24:38.285Z,6356.00
2019-03-29T12:25:38.329Z,6780.00
2019-03-29T12:26:38.372Z,6908.00
2019-03-29T12:27:38.425Z,6960.00
2019-03-29T12:28:38.478Z,6916.00
2019-03-29T12:29:38.504Z,6608.00